sensor_id;sensor_type;location;lat;lon;timestamp;temperature;humidity
18189;DHT22;9219;50.396;8.546;2022-07-01T00:02:17;13.80;99.90
18189;DHT22;9219;50.396;8.546;2022-07-01T00:04:45;13.70;99.90
18189;DHT22;9219;50.396;8.546;2022-07-01T00:07:12;13.80;99.90
18189;DHT22;9219;50.396;8.546;2022-07-01T00:09:40;13.90;99.90
18189;DHT22;9219;50.396;8.546;2022-07-01T00:12:09;14.00;99.90
18189;DHT22;9219;50.396;8.546;2022-07-01T00:14:37;14.10;99.90
18189;DHT22;9219;50.396;8.546;2022-07-01T00:19:47;13.80;99.90
18189;DHT22;9219;50.396;8.546;2022-07-01T00:22:16;13.50;99.90
18189;DHT22;9219;50.396;8.546;2022-07-01T00:24:44;13.50;99.90
18189;DHT22;9219;50.396;8.546;2022-07-01T00:27:12;13.60;99.90
18189;DHT22;9219;50.396;8.546;2022-07-01T00:29:40;13.60;99.90
18189;DHT22;9219;50.396;8.546;2022-07-01T00:32:08;13.70;99.90
18189;DHT22;9219;50.396;8.546;2022-07-01T00:34:36;13.80;99.90
18189;DHT22;9219;50.396;8.546;2022-07-01T00:37:05;13.80;99.90
18189;DHT22;9219;50.396;8.546;2022-07-01T00:44:38;13.90;99.90
18189;DHT22;9219;50.396;8.546;2022-07-01T00:47:09;14.10;99.90
18189;DHT22;9219;50.396;8.546;2022-07-01T00:49:37;14.10;99.90
18189;DHT22;9219;50.396;8.546;2022-07-01T00:52:08;14.10;99.90
18189;DHT22;9219;50.396;8.546;2022-07-01T00:54:37;14.20;99.90
18189;DHT22;9219;50.396;8.546;2022-07-01T00:57:08;14.40;99.90
18189;DHT22;9219;50.396;8.546;2022-07-01T00:59:38;14.50;99.90
18189;DHT22;9219;50.396;8.546;2022-07-01T01:02:07;14.60;99.90
18189;DHT22;9219;50.396;8.546;2022-07-01T01:09:40;14.50;99.90
18189;DHT22;9219;50.396;8.546;2022-07-01T01:12:07;14.30;99.90
18189;DHT22;9219;50.396;8.546;2022-07-01T01:14:44;14.10;99.90
18189;DHT22;9219;50.396;8.546;2022-07-01T01:17:13;14.00;99.90
18189;DHT22;9219;50.396;8.546;2022-07-01T01:19:41;13.90;99.90
18189;DHT22;9219;50.396;8.546;2022-07-01T01:22:11;14.00;99.90
18189;DHT22;9219;50.396;8.546;2022-07-01T01:24:41;13.80;99.90
18189;DHT22;9219;50.396;8.546;2022-07-01T01:27:09;13.80;99.90
18189;DHT22;9219;50.396;8.546;2022-07-01T01:34:45;13.80;99.90
18189;DHT22;9219;50.396;8.546;2022-07-01T01:37:13;13.50;99.90
18189;DHT22;9219;50.396;8.546;2022-07-01T01:39:41;13.60;99.90
18189;DHT22;9219;50.396;8.546;2022-07-01T01:42:08;13.60;99.90
18189;DHT22;9219;50.396;8.546;2022-07-01T01:44:35;13.80;99.90
18189;DHT22;9219;50.396;8.546;2022-07-01T01:47:03;13.80;99.90
18189;DHT22;9219;50.396;8.546;2022-07-01T01:49:31;13.70;99.90
18189;DHT22;9219;50.396;8.546;2022-07-01T01:52:00;13.70;99.90
18189;DHT22;9219;50.396;8.546;2022-07-01T01:59:47;13.40;99.90
18189;DHT22;9219;50.396;8.546;2022-07-01T02:02:15;13.40;99.90
18189;DHT22;9219;50.396;8.546;2022-07-01T02:04:42;13.50;99.90
18189;DHT22;9219;50.396;8.546;2022-07-01T02:07:10;13.60;99.90
18189;DHT22;9219;50.396;8.546;2022-07-01T02:09:37;13.50;99.90
18189;DHT22;9219;50.396;8.546;2022-07-01T02:12:06;13.40;99.90
18189;DHT22;9219;50.396;8.546;2022-07-01T02:14:34;13.40;99.90
18189;DHT22;9219;50.396;8.546;2022-07-01T02:17:04;13.50;99.90
18189;DHT22;9219;50.396;8.546;2022-07-01T02:24:36;13.70;99.90
18189;DHT22;9219;50.396;8.546;2022-07-01T02:27:04;13.90;99.90
18189;DHT22;9219;50.396;8.546;2022-07-01T02:29:32;14.30;99.90
18189;DHT22;9219;50.396;8.546;2022-07-01T02:32:00;14.10;99.90
18189;DHT22;9219;50.396;8.546;2022-07-01T02:34:28;14.10;99.90
18189;DHT22;9219;50.396;8.546;2022-07-01T02:36:56;13.60;99.90
18189;DHT22;9219;50.396;8.546;2022-07-01T02:39:24;13.50;99.90
18189;DHT22;9219;50.396;8.546;2022-07-01T02:50:12;13.50;99.90
18189;DHT22;9219;50.396;8.546;2022-07-01T02:52:47;13.50;99.90
18189;DHT22;9219;50.396;8.546;2022-07-01T02:55:14;13.30;99.90
18189;DHT22;9219;50.396;8.546;2022-07-01T02:57:43;13.20;99.90
18189;DHT22;9219;50.396;8.546;2022-07-01T03:00:13;13.30;99.90
18189;DHT22;9219;50.396;8.546;2022-07-01T03:02:41;13.50;99.90
18189;DHT22;9219;50.396;8.546;2022-07-01T03:05:10;13.30;99.90
18189;DHT22;9219;50.396;8.546;2022-07-01T03:12:43;13.40;99.90
18189;DHT22;9219;50.396;8.546;2022-07-01T03:15:13;13.50;99.90
18189;DHT22;9219;50.396;8.546;2022-07-01T03:17:43;13.60;99.90
18189;DHT22;9219;50.396;8.546;2022-07-01T03:20:12;13.60;99.90
18189;DHT22;9219;50.396;8.546;2022-07-01T03:22:40;13.50;99.90
18189;DHT22;9219;50.396;8.546;2022-07-01T03:25:09;13.20;99.90
18189;DHT22;9219;50.396;8.546;2022-07-01T03:27:37;13.00;99.90
18189;DHT22;9219;50.396;8.546;2022-07-01T03:30:08;12.90;99.90
18189;DHT22;9219;50.396;8.546;2022-07-01T03:37:43;12.70;99.90
18189;DHT22;9219;50.396;8.546;2022-07-01T03:40:11;12.70;99.90
18189;DHT22;9219;50.396;8.546;2022-07-01T03:42:39;12.70;99.90
18189;DHT22;9219;50.396;8.546;2022-07-01T03:45:08;12.70;99.90
18189;DHT22;9219;50.396;8.546;2022-07-01T03:47:36;12.80;99.90
18189;DHT22;9219;50.396;8.546;2022-07-01T03:50:05;12.70;99.90
18189;DHT22;9219;50.396;8.546;2022-07-01T03:52:32;12.70;99.90
18189;DHT22;9219;50.396;8.546;2022-07-01T04:00:00;12.60;99.90
18189;DHT22;9219;50.396;8.546;2022-07-01T04:02:27;12.60;99.90
18189;DHT22;9219;50.396;8.546;2022-07-01T04:04:55;12.70;99.90
18189;DHT22;9219;50.396;8.546;2022-07-01T04:07:23;12.50;99.90
18189;DHT22;9219;50.396;8.546;2022-07-01T04:09:51;12.50;99.90
18189;DHT22;9219;50.396;8.546;2022-07-01T04:12:19;12.50;99.90
18189;DHT22;9219;50.396;8.546;2022-07-01T04:14:47;12.60;99.90
18189;DHT22;9219;50.396;8.546;2022-07-01T04:19:56;12.60;99.90
18189;DHT22;9219;50.396;8.546;2022-07-01T04:22:24;12.40;99.90
18189;DHT22;9219;50.396;8.546;2022-07-01T04:25:00;12.40;99.90
18189;DHT22;9219;50.396;8.546;2022-07-01T04:27:29;12.40;99.90
18189;DHT22;9219;50.396;8.546;2022-07-01T04:29:57;12.40;99.90
18189;DHT22;9219;50.396;8.546;2022-07-01T04:32:24;12.50;99.90
18189;DHT22;9219;50.396;8.546;2022-07-01T04:34:52;12.40;99.90
18189;DHT22;9219;50.396;8.546;2022-07-01T04:37:21;12.40;99.90
18189;DHT22;9219;50.396;8.546;2022-07-01T04:44:55;12.70;99.90
18189;DHT22;9219;50.396;8.546;2022-07-01T04:47:23;12.80;99.90
18189;DHT22;9219;50.396;8.546;2022-07-01T04:49:51;12.80;99.90
18189;DHT22;9219;50.396;8.546;2022-07-01T04:52:19;12.80;99.90
18189;DHT22;9219;50.396;8.546;2022-07-01T04:54:47;12.80;99.90
18189;DHT22;9219;50.396;8.546;2022-07-01T04:57:15;12.80;99.90
18189;DHT22;9219;50.396;8.546;2022-07-01T04:59:42;12.80;99.90
18189;DHT22;9219;50.396;8.546;2022-07-01T05:07:16;12.90;99.90
18189;DHT22;9219;50.396;8.546;2022-07-01T05:09:57;13.20;99.90
18189;DHT22;9219;50.396;8.546;2022-07-01T05:12:26;13.20;99.90
18189;DHT22;9219;50.396;8.546;2022-07-01T05:14:53;13.20;99.90
18189;DHT22;9219;50.396;8.546;2022-07-01T05:17:21;13.30;99.90
18189;DHT22;9219;50.396;8.546;2022-07-01T05:20:11;13.30;99.90
18189;DHT22;9219;50.396;8.546;2022-07-01T05:22:57;13.30;99.90
18189;DHT22;9219;50.396;8.546;2022-07-01T05:30:31;13.60;99.90
18189;DHT22;9219;50.396;8.546;2022-07-01T05:32:59;13.80;99.90
18189;DHT22;9219;50.396;8.546;2022-07-01T05:35:27;13.90;99.90
18189;DHT22;9219;50.396;8.546;2022-07-01T05:37:55;13.60;99.90
18189;DHT22;9219;50.396;8.546;2022-07-01T05:40:22;13.70;99.90
18189;DHT22;9219;50.396;8.546;2022-07-01T05:42:51;13.70;99.90
18189;DHT22;9219;50.396;8.546;2022-07-01T05:45:19;13.80;99.90
18189;DHT22;9219;50.396;8.546;2022-07-01T05:55:28;13.90;99.90
18189;DHT22;9219;50.396;8.546;2022-07-01T05:57:56;14.10;99.90
18189;DHT22;9219;50.396;8.546;2022-07-01T06:00:24;13.90;99.90
18189;DHT22;9219;50.396;8.546;2022-07-01T06:02:52;13.80;99.90
18189;DHT22;9219;50.396;8.546;2022-07-01T06:05:27;13.70;99.90
18189;DHT22;9219;50.396;8.546;2022-07-01T06:07:56;13.60;99.90
18189;DHT22;9219;50.396;8.546;2022-07-01T06:10:24;13.70;99.90
18189;DHT22;9219;50.396;8.546;2022-07-01T06:15:32;13.70;99.90
18189;DHT22;9219;50.396;8.546;2022-07-01T06:18:00;13.70;99.90
18189;DHT22;9219;50.396;8.546;2022-07-01T06:20:28;13.90;99.90
18189;DHT22;9219;50.396;8.546;2022-07-01T06:22:56;14.00;99.90
18189;DHT22;9219;50.396;8.546;2022-07-01T06:25:24;13.90;99.90
18189;DHT22;9219;50.396;8.546;2022-07-01T06:27:51;13.70;99.90
18189;DHT22;9219;50.396;8.546;2022-07-01T06:30:20;14.00;99.90
18189;DHT22;9219;50.396;8.546;2022-07-01T06:35:28;13.90;99.90
18189;DHT22;9219;50.396;8.546;2022-07-01T06:37:56;14.00;99.90
18189;DHT22;9219;50.396;8.546;2022-07-01T06:40:29;14.00;99.90
18189;DHT22;9219;50.396;8.546;2022-07-01T06:42:57;14.10;99.90
18189;DHT22;9219;50.396;8.546;2022-07-01T06:45:25;14.20;99.90
18189;DHT22;9219;50.396;8.546;2022-07-01T06:47:52;14.20;99.90
18189;DHT22;9219;50.396;8.546;2022-07-01T06:50:20;14.20;99.90
18189;DHT22;9219;50.396;8.546;2022-07-01T06:52:50;14.00;99.90
18189;DHT22;9219;50.396;8.546;2022-07-01T07:00:22;13.90;99.90
18189;DHT22;9219;50.396;8.546;2022-07-01T07:02:50;14.00;99.90
18189;DHT22;9219;50.396;8.546;2022-07-01T07:05:18;14.20;99.90
18189;DHT22;9219;50.396;8.546;2022-07-01T07:07:45;14.20;99.90
18189;DHT22;9219;50.396;8.546;2022-07-01T07:10:13;14.30;99.90
18189;DHT22;9219;50.396;8.546;2022-07-01T07:12:41;14.20;99.90
18189;DHT22;9219;50.396;8.546;2022-07-01T07:15:09;13.90;99.90
18189;DHT22;9219;50.396;8.546;2022-07-01T07:17:38;13.90;99.90
18189;DHT22;9219;50.396;8.546;2022-07-01T07:25:12;14.20;99.90
18189;DHT22;9219;50.396;8.546;2022-07-01T07:27:40;14.50;99.90
18189;DHT22;9219;50.396;8.546;2022-07-01T07:30:08;14.70;99.90
18189;DHT22;9219;50.396;8.546;2022-07-01T07:32:36;14.50;99.90
18189;DHT22;9219;50.396;8.546;2022-07-01T07:35:04;14.60;99.90
18189;DHT22;9219;50.396;8.546;2022-07-01T07:37:33;14.60;99.90
18189;DHT22;9219;50.396;8.546;2022-07-01T07:40:02;14.80;99.90
18189;DHT22;9219;50.396;8.546;2022-07-01T07:45:23;14.90;99.90
18189;DHT22;9219;50.396;8.546;2022-07-01T07:47:50;14.70;99.90
18189;DHT22;9219;50.396;8.546;2022-07-01T07:50:21;14.90;99.90
18189;DHT22;9219;50.396;8.546;2022-07-01T07:52:49;14.50;99.90
18189;DHT22;9219;50.396;8.546;2022-07-01T07:55:16;14.30;99.90
18189;DHT22;9219;50.396;8.546;2022-07-01T07:57:44;14.00;99.90
18189;DHT22;9219;50.396;8.546;2022-07-01T08:00:12;14.10;99.90
18189;DHT22;9219;50.396;8.546;2022-07-01T08:10:44;14.30;99.90
18189;DHT22;9219;50.396;8.546;2022-07-01T08:13:12;14.40;99.90
18189;DHT22;9219;50.396;8.546;2022-07-01T08:15:39;14.80;99.90
18189;DHT22;9219;50.396;8.546;2022-07-01T08:18:09;15.00;99.90
18189;DHT22;9219;50.396;8.546;2022-07-01T08:20:37;15.20;99.90
18189;DHT22;9219;50.396;8.546;2022-07-01T08:23:04;15.00;99.90
18189;DHT22;9219;50.396;8.546;2022-07-01T08:25:32;15.10;99.90
18189;DHT22;9219;50.396;8.546;2022-07-01T08:36:02;15.00;99.90
18189;DHT22;9219;50.396;8.546;2022-07-01T08:38:29;14.80;99.90
18189;DHT22;9219;50.396;8.546;2022-07-01T08:40:57;14.80;99.90
18189;DHT22;9219;50.396;8.546;2022-07-01T08:43:25;14.80;99.90
18189;DHT22;9219;50.396;8.546;2022-07-01T08:45:52;14.80;99.90
18189;DHT22;9219;50.396;8.546;2022-07-01T08:48:21;14.70;99.90
18189;DHT22;9219;50.396;8.546;2022-07-01T08:50:49;14.80;99.90
18189;DHT22;9219;50.396;8.546;2022-07-01T08:57:57;14.70;99.90
18189;DHT22;9219;50.396;8.546;2022-07-01T09:00:31;14.60;99.90
18189;DHT22;9219;50.396;8.546;2022-07-01T09:03:01;14.60;99.90
18189;DHT22;9219;50.396;8.546;2022-07-01T09:05:31;14.70;99.90
18189;DHT22;9219;50.396;8.546;2022-07-01T09:07:59;14.60;99.90
18189;DHT22;9219;50.396;8.546;2022-07-01T09:10:29;14.40;99.90
18189;DHT22;9219;50.396;8.546;2022-07-01T09:13:04;14.20;99.90
18189;DHT22;9219;50.396;8.546;2022-07-01T09:15:36;14.30;99.90
18189;DHT22;9219;50.396;8.546;2022-07-01T09:23:11;14.40;99.90
18189;DHT22;9219;50.396;8.546;2022-07-01T09:25:41;14.50;99.90
18189;DHT22;9219;50.396;8.546;2022-07-01T09:28:22;14.60;99.90
18189;DHT22;9219;50.396;8.546;2022-07-01T09:30:52;15.00;99.90
18189;DHT22;9219;50.396;8.546;2022-07-01T09:33:21;15.00;99.90
18189;DHT22;9219;50.396;8.546;2022-07-01T09:35:49;15.30;99.90
18189;DHT22;9219;50.396;8.546;2022-07-01T09:38:18;15.40;99.90
18189;DHT22;9219;50.396;8.546;2022-07-01T09:41:02;15.40;99.90
18189;DHT22;9219;50.396;8.546;2022-07-01T09:48:46;14.90;99.90
18189;DHT22;9219;50.396;8.546;2022-07-01T09:51:14;15.00;99.90
18189;DHT22;9219;50.396;8.546;2022-07-01T09:53:43;15.10;99.90
18189;DHT22;9219;50.396;8.546;2022-07-01T09:56:13;15.30;99.90
18189;DHT22;9219;50.396;8.546;2022-07-01T09:58:40;15.50;99.90
18189;DHT22;9219;50.396;8.546;2022-07-01T10:01:09;15.90;99.90
18189;DHT22;9219;50.396;8.546;2022-07-01T10:03:38;15.80;99.90
18189;DHT22;9219;50.396;8.546;2022-07-01T10:06:29;15.90;99.90
18189;DHT22;9219;50.396;8.546;2022-07-01T10:14:07;16.00;99.90
18189;DHT22;9219;50.396;8.546;2022-07-01T10:16:38;16.00;99.90
18189;DHT22;9219;50.396;8.546;2022-07-01T10:19:24;16.00;99.90
18189;DHT22;9219;50.396;8.546;2022-07-01T10:21:53;16.10;99.90
18189;DHT22;9219;50.396;8.546;2022-07-01T10:24:25;15.90;99.90
18189;DHT22;9219;50.396;8.546;2022-07-01T10:26:58;16.10;99.90
18189;DHT22;9219;50.396;8.546;2022-07-01T10:29:31;16.30;99.90
18189;DHT22;9219;50.396;8.546;2022-07-01T10:37:07;16.70;99.90
18189;DHT22;9219;50.396;8.546;2022-07-01T10:39:57;16.40;99.90
18189;DHT22;9219;50.396;8.546;2022-07-01T10:42:29;16.70;99.90
18189;DHT22;9219;50.396;8.546;2022-07-01T10:45:03;16.70;99.90
18189;DHT22;9219;50.396;8.546;2022-07-01T10:47:30;17.10;99.90
18189;DHT22;9219;50.396;8.546;2022-07-01T10:50:02;17.20;99.90
18189;DHT22;9219;50.396;8.546;2022-07-01T10:52:32;17.50;99.90
18189;DHT22;9219;50.396;8.546;2022-07-01T10:58:03;17.40;99.90
18189;DHT22;9219;50.396;8.546;2022-07-01T11:00:33;17.30;99.90
18189;DHT22;9219;50.396;8.546;2022-07-01T11:03:20;17.20;99.90
18189;DHT22;9219;50.396;8.546;2022-07-01T11:05:51;17.40;99.90
18189;DHT22;9219;50.396;8.546;2022-07-01T11:08:20;17.60;99.90
18189;DHT22;9219;50.396;8.546;2022-07-01T11:10:58;17.70;99.90
18189;DHT22;9219;50.396;8.546;2022-07-01T11:16:09;17.70;99.90
18189;DHT22;9219;50.396;8.546;2022-07-01T11:18:37;18.30;99.90
18189;DHT22;9219;50.396;8.546;2022-07-01T11:21:08;18.50;99.90
18189;DHT22;9219;50.396;8.546;2022-07-01T11:23:36;18.60;99.90
18189;DHT22;9219;50.396;8.546;2022-07-01T11:26:20;18.20;99.90
18189;DHT22;9219;50.396;8.546;2022-07-01T11:28:48;18.10;99.90
18189;DHT22;9219;50.396;8.546;2022-07-01T11:31:27;18.10;99.90
18189;DHT22;9219;50.396;8.546;2022-07-01T11:41:23;18.00;99.90
18189;DHT22;9219;50.396;8.546;2022-07-01T11:43:52;18.00;99.90
18189;DHT22;9219;50.396;8.546;2022-07-01T11:46:19;18.30;99.90
18189;DHT22;9219;50.396;8.546;2022-07-01T11:48:49;18.50;99.90
18189;DHT22;9219;50.396;8.546;2022-07-01T11:51:18;18.40;99.90
18189;DHT22;9219;50.396;8.546;2022-07-01T11:53:48;18.70;99.90
18189;DHT22;9219;50.396;8.546;2022-07-01T11:56:17;18.90;99.90
18189;DHT22;9219;50.396;8.546;2022-07-01T12:01:31;19.00;99.90
18189;DHT22;9219;50.396;8.546;2022-07-01T12:04:02;18.90;99.90
18189;DHT22;9219;50.396;8.546;2022-07-01T12:06:30;19.20;99.90
18189;DHT22;9219;50.396;8.546;2022-07-01T12:08:58;19.10;99.90
18189;DHT22;9219;50.396;8.546;2022-07-01T12:11:27;19.30;99.90
18189;DHT22;9219;50.396;8.546;2022-07-01T12:13:58;19.30;99.90
18189;DHT22;9219;50.396;8.546;2022-07-01T12:16:26;19.70;99.90
18189;DHT22;9219;50.396;8.546;2022-07-01T12:21:52;20.00;99.90
18189;DHT22;9219;50.396;8.546;2022-07-01T12:24:24;19.80;99.90
18189;DHT22;9219;50.396;8.546;2022-07-01T12:26:53;20.00;99.90
18189;DHT22;9219;50.396;8.546;2022-07-01T12:29:30;20.20;99.90
18189;DHT22;9219;50.396;8.546;2022-07-01T12:32:05;19.80;99.90
18189;DHT22;9219;50.396;8.546;2022-07-01T12:34:39;20.00;99.90
18189;DHT22;9219;50.396;8.546;2022-07-01T12:37:12;20.40;99.90
18189;DHT22;9219;50.396;8.546;2022-07-01T12:44:50;20.30;99.90
18189;DHT22;9219;50.396;8.546;2022-07-01T12:47:23;20.50;99.90
18189;DHT22;9219;50.396;8.546;2022-07-01T12:50:08;20.40;99.90
18189;DHT22;9219;50.396;8.546;2022-07-01T12:52:36;20.30;99.90
18189;DHT22;9219;50.396;8.546;2022-07-01T12:55:14;20.20;99.90
18189;DHT22;9219;50.396;8.546;2022-07-01T12:57:41;20.30;99.90
18189;DHT22;9219;50.396;8.546;2022-07-01T13:00:11;20.70;99.90
18189;DHT22;9219;50.396;8.546;2022-07-01T13:06:06;21.00;99.90
18189;DHT22;9219;50.396;8.546;2022-07-01T13:08:34;20.80;99.90
18189;DHT22;9219;50.396;8.546;2022-07-01T13:11:02;20.60;99.90
18189;DHT22;9219;50.396;8.546;2022-07-01T13:13:30;20.80;99.90
18189;DHT22;9219;50.396;8.546;2022-07-01T13:15:58;20.80;99.90
18189;DHT22;9219;50.396;8.546;2022-07-01T13:18:44;20.70;99.90
18189;DHT22;9219;50.396;8.546;2022-07-01T13:21:19;20.70;99.90
18189;DHT22;9219;50.396;8.546;2022-07-01T13:29:39;20.70;99.90
18189;DHT22;9219;50.396;8.546;2022-07-01T13:32:08;20.70;99.90
18189;DHT22;9219;50.396;8.546;2022-07-01T13:34:37;20.60;99.90
18189;DHT22;9219;50.396;8.546;2022-07-01T13:37:12;20.90;99.90
18189;DHT22;9219;50.396;8.546;2022-07-01T13:39:40;20.90;99.90
18189;DHT22;9219;50.396;8.546;2022-07-01T13:42:09;20.70;99.90
18189;DHT22;9219;50.396;8.546;2022-07-01T13:44:39;20.60;99.90
18189;DHT22;9219;50.396;8.546;2022-07-01T13:52:13;20.70;99.90
18189;DHT22;9219;50.396;8.546;2022-07-01T13:54:41;20.90;99.90
18189;DHT22;9219;50.396;8.546;2022-07-01T13:57:08;20.70;99.90
18189;DHT22;9219;50.396;8.546;2022-07-01T13:59:36;20.70;99.90
18189;DHT22;9219;50.396;8.546;2022-07-01T14:02:08;20.50;99.90
18189;DHT22;9219;50.396;8.546;2022-07-01T14:04:36;20.50;99.90
18189;DHT22;9219;50.396;8.546;2022-07-01T14:07:04;20.60;99.90
18189;DHT22;9219;50.396;8.546;2022-07-01T14:09:36;20.40;99.90
18189;DHT22;9219;50.396;8.546;2022-07-01T14:19:30;20.50;99.90
18189;DHT22;9219;50.396;8.546;2022-07-01T14:21:58;20.30;99.90
18189;DHT22;9219;50.396;8.546;2022-07-01T14:24:26;20.20;99.90
18189;DHT22;9219;50.396;8.546;2022-07-01T14:26:54;20.30;99.90
18189;DHT22;9219;50.396;8.546;2022-07-01T14:29:23;20.10;99.90
18189;DHT22;9219;50.396;8.546;2022-07-01T14:31:51;20.40;99.90
18189;DHT22;9219;50.396;8.546;2022-07-01T14:34:20;20.40;99.90
18189;DHT22;9219;50.396;8.546;2022-07-01T14:36:48;20.50;99.90
18189;DHT22;9219;50.396;8.546;2022-07-01T14:39:29;20.50;99.90
18189;DHT22;9219;50.396;8.546;2022-07-01T14:41:57;20.70;99.90
18189;DHT22;9219;50.396;8.546;2022-07-01T14:44:25;20.50;99.90
18189;DHT22;9219;50.396;8.546;2022-07-01T14:46:53;20.50;99.90
18189;DHT22;9219;50.396;8.546;2022-07-01T14:49:20;20.30;99.90
18189;DHT22;9219;50.396;8.546;2022-07-01T14:51:49;20.10;99.90
18189;DHT22;9219;50.396;8.546;2022-07-01T14:54:17;20.00;99.90
18189;DHT22;9219;50.396;8.546;2022-07-01T14:59:29;19.60;99.90
18189;DHT22;9219;50.396;8.546;2022-07-01T15:01:56;19.50;99.90
18189;DHT22;9219;50.396;8.546;2022-07-01T15:04:29;19.30;99.90
18189;DHT22;9219;50.396;8.546;2022-07-01T15:06:56;19.40;99.90
18189;DHT22;9219;50.396;8.546;2022-07-01T15:09:24;19.50;99.90
18189;DHT22;9219;50.396;8.546;2022-07-01T15:11:52;19.40;99.90
18189;DHT22;9219;50.396;8.546;2022-07-01T15:14:21;19.40;99.90
18189;DHT22;9219;50.396;8.546;2022-07-01T15:24:41;19.70;99.90
18189;DHT22;9219;50.396;8.546;2022-07-01T15:27:09;20.10;99.90
18189;DHT22;9219;50.396;8.546;2022-07-01T15:29:41;20.00;99.90
18189;DHT22;9219;50.396;8.546;2022-07-01T15:32:11;20.20;99.90
18189;DHT22;9219;50.396;8.546;2022-07-01T15:34:39;19.90;99.90
18189;DHT22;9219;50.396;8.546;2022-07-01T15:37:09;20.10;99.90
18189;DHT22;9219;50.396;8.546;2022-07-01T15:39:36;20.10;99.90
18189;DHT22;9219;50.396;8.546;2022-07-01T15:45:16;20.40;99.90
18189;DHT22;9219;50.396;8.546;2022-07-01T15:47:43;20.50;99.90
18189;DHT22;9219;50.396;8.546;2022-07-01T15:50:29;20.60;99.90
18189;DHT22;9219;50.396;8.546;2022-07-01T15:52:56;20.50;99.90
18189;DHT22;9219;50.396;8.546;2022-07-01T15:55:24;20.40;99.90
18189;DHT22;9219;50.396;8.546;2022-07-01T15:57:52;20.60;99.90
18189;DHT22;9219;50.396;8.546;2022-07-01T16:00:22;20.70;99.90
18189;DHT22;9219;50.396;8.546;2022-07-01T16:05:30;20.90;99.90
18189;DHT22;9219;50.396;8.546;2022-07-01T16:08:00;21.00;99.90
18189;DHT22;9219;50.396;8.546;2022-07-01T16:10:43;21.30;99.90
18189;DHT22;9219;50.396;8.546;2022-07-01T16:13:15;21.40;99.90
18189;DHT22;9219;50.396;8.546;2022-07-01T16:15:45;21.40;99.90
18189;DHT22;9219;50.396;8.546;2022-07-01T16:18:24;21.20;99.90
18189;DHT22;9219;50.396;8.546;2022-07-01T16:20:56;21.20;99.90
18189;DHT22;9219;50.396;8.546;2022-07-01T16:28:31;21.00;99.90
18189;DHT22;9219;50.396;8.546;2022-07-01T16:30:59;21.00;99.90
18189;DHT22;9219;50.396;8.546;2022-07-01T16:33:27;21.10;99.90
18189;DHT22;9219;50.396;8.546;2022-07-01T16:36:02;21.00;99.90
18189;DHT22;9219;50.396;8.546;2022-07-01T16:38:38;21.10;99.90
18189;DHT22;9219;50.396;8.546;2022-07-01T16:41:13;21.00;99.90
18189;DHT22;9219;50.396;8.546;2022-07-01T16:43:47;20.90;99.90
18189;DHT22;9219;50.396;8.546;2022-07-01T16:51:23;20.50;99.90
18189;DHT22;9219;50.396;8.546;2022-07-01T16:53:51;20.60;99.90
18189;DHT22;9219;50.396;8.546;2022-07-01T16:56:23;20.50;99.90
18189;DHT22;9219;50.396;8.546;2022-07-01T16:58:55;20.50;99.90
18189;DHT22;9219;50.396;8.546;2022-07-01T17:01:25;20.50;99.90
18189;DHT22;9219;50.396;8.546;2022-07-01T17:03:54;20.50;99.90
18189;DHT22;9219;50.396;8.546;2022-07-01T17:06:25;20.40;99.90
18189;DHT22;9219;50.396;8.546;2022-07-01T17:08:57;20.50;99.90
18189;DHT22;9219;50.396;8.546;2022-07-01T17:16:42;20.40;99.90
18189;DHT22;9219;50.396;8.546;2022-07-01T17:19:10;20.40;99.90
18189;DHT22;9219;50.396;8.546;2022-07-01T17:21:42;20.30;99.90
18189;DHT22;9219;50.396;8.546;2022-07-01T17:24:14;20.30;99.90
18189;DHT22;9219;50.396;8.546;2022-07-01T17:26:51;20.20;99.90
18189;DHT22;9219;50.396;8.546;2022-07-01T17:29:24;19.90;99.90
18189;DHT22;9219;50.396;8.546;2022-07-01T17:31:58;19.90;99.90
18189;DHT22;9219;50.396;8.546;2022-07-01T17:34:29;20.00;99.90
18189;DHT22;9219;50.396;8.546;2022-07-01T17:42:13;20.10;99.90
18189;DHT22;9219;50.396;8.546;2022-07-01T17:44:42;20.10;99.90
18189;DHT22;9219;50.396;8.546;2022-07-01T17:47:12;20.10;99.90
18189;DHT22;9219;50.396;8.546;2022-07-01T17:49:41;20.10;99.90
18189;DHT22;9219;50.396;8.546;2022-07-01T17:52:11;20.10;99.90
18189;DHT22;9219;50.396;8.546;2022-07-01T17:54:39;20.20;99.90
18189;DHT22;9219;50.396;8.546;2022-07-01T17:57:09;20.00;99.90
18189;DHT22;9219;50.396;8.546;2022-07-01T18:07:46;20.10;99.90
18189;DHT22;9219;50.396;8.546;2022-07-01T18:10:14;20.10;99.90
18189;DHT22;9219;50.396;8.546;2022-07-01T18:12:44;20.10;99.90
18189;DHT22;9219;50.396;8.546;2022-07-01T18:15:13;20.20;99.90
18189;DHT22;9219;50.396;8.546;2022-07-01T18:17:51;20.10;99.90
18189;DHT22;9219;50.396;8.546;2022-07-01T18:20:30;20.00;99.90
18189;DHT22;9219;50.396;8.546;2022-07-01T18:23:08;20.00;99.90
18189;DHT22;9219;50.396;8.546;2022-07-01T18:30:48;20.00;99.90
18189;DHT22;9219;50.396;8.546;2022-07-01T18:33:22;19.90;99.90
18189;DHT22;9219;50.396;8.546;2022-07-01T18:35:55;19.90;99.90
18189;DHT22;9219;50.396;8.546;2022-07-01T18:38:23;20.00;99.90
18189;DHT22;9219;50.396;8.546;2022-07-01T18:40:51;20.10;99.90
18189;DHT22;9219;50.396;8.546;2022-07-01T18:43:19;20.00;99.90
18189;DHT22;9219;50.396;8.546;2022-07-01T18:45:48;20.00;99.90
18189;DHT22;9219;50.396;8.546;2022-07-01T18:53:18;20.00;99.90
18189;DHT22;9219;50.396;8.546;2022-07-01T18:55:48;20.00;99.90
18189;DHT22;9219;50.396;8.546;2022-07-01T18:58:17;20.20;99.90
18189;DHT22;9219;50.396;8.546;2022-07-01T19:00:45;20.40;99.90
18189;DHT22;9219;50.396;8.546;2022-07-01T19:03:14;20.50;99.90
18189;DHT22;9219;50.396;8.546;2022-07-01T19:05:41;20.60;99.90
18189;DHT22;9219;50.396;8.546;2022-07-01T19:08:10;20.70;99.90
18189;DHT22;9219;50.396;8.546;2022-07-01T19:13:23;20.50;99.90
18189;DHT22;9219;50.396;8.546;2022-07-01T19:15:51;20.10;99.90
18189;DHT22;9219;50.396;8.546;2022-07-01T19:18:18;20.30;99.90
18189;DHT22;9219;50.396;8.546;2022-07-01T19:20:46;20.30;99.90
18189;DHT22;9219;50.396;8.546;2022-07-01T19:23:13;20.30;99.90
18189;DHT22;9219;50.396;8.546;2022-07-01T19:25:41;20.20;99.90
18189;DHT22;9219;50.396;8.546;2022-07-01T19:28:10;20.10;99.90
18189;DHT22;9219;50.396;8.546;2022-07-01T19:30:40;20.10;99.90
18189;DHT22;9219;50.396;8.546;2022-07-01T19:38:18;19.80;99.90
18189;DHT22;9219;50.396;8.546;2022-07-01T19:40:46;19.30;99.90
18189;DHT22;9219;50.396;8.546;2022-07-01T19:43:13;19.60;99.90
18189;DHT22;9219;50.396;8.546;2022-07-01T19:45:41;19.80;99.90
18189;DHT22;9219;50.396;8.546;2022-07-01T19:48:09;19.90;99.90
18189;DHT22;9219;50.396;8.546;2022-07-01T19:50:37;19.90;99.90
18189;DHT22;9219;50.396;8.546;2022-07-01T19:53:07;19.70;99.90
18189;DHT22;9219;50.396;8.546;2022-07-01T20:03:45;19.60;99.90
18189;DHT22;9219;50.396;8.546;2022-07-01T20:06:14;19.50;99.90
18189;DHT22;9219;50.396;8.546;2022-07-01T20:08:42;19.40;99.90
18189;DHT22;9219;50.396;8.546;2022-07-01T20:11:10;19.40;99.90
18189;DHT22;9219;50.396;8.546;2022-07-01T20:13:40;19.50;99.90
18189;DHT22;9219;50.396;8.546;2022-07-01T20:16:07;19.40;99.90